Time;durP1;ratioP1;P1;durP2;ratioP2;P2;SDS_P1;SDS_P2;PMS_P1;PMS_P2;Temp;Humidity;BMP_temperature;BMP_pressure;BME280_temperature;BME280_humidity;BME280_pressure;Samples;Min_cycle;Max_cycle;Signal;HPM_P1;HPM_P2
2021/01/29 00:01:20;;;;;;;2.20;0.90;;;7.30;98.00;;;;;;5027569;28;20116;-66
2021/01/29 00:03:46;;;;;;;1.58;0.90;;;7.40;98.00;;;;;;5028178;28;21624;-68
2021/01/29 00:06:12;;;;;;;2.58;1.10;;;7.60;98.00;;;;;;5027368;28;20037;-66
2021/01/29 00:08:38;;;;;;;2.13;1.27;;;7.60;98.00;;;;;;5028815;28;20342;-67
2021/01/29 00:11:04;;;;;;;1.58;0.88;;;7.70;98.00;;;;;;5027668;28;20025;-67
2021/01/29 00:13:31;;;;;;;0.95;0.73;;;7.70;98.00;;;;;;5027843;28;20076;-67
2021/01/29 00:15:57;;;;;;;1.52;1.00;;;7.80;98.00;;;;;;5031474;28;20026;-67
2021/01/29 00:18:23;;;;;;;1.65;0.95;;;7.90;98.00;;;;;;5027564;28;20100;-67
2021/01/29 00:20:52;;;;;;;3.10;1.10;;;7.90;98.00;;;;;;5031226;28;20037;-66
2021/01/29 00:23:19;;;;;;;1.10;0.80;;;8.00;98.00;;;;;;5025469;28;20083;-66
2021/01/29 00:25:48;;;;;;;0.60;0.60;;;8.00;98.00;;;;;;5030222;28;20446;-66
2021/01/29 00:28:15;;;;;;;1.77;1.00;;;8.00;98.00;;;;;;5030763;28;20431;-67
2021/01/29 00:30:41;;;;;;;1.05;0.75;;;8.10;98.00;;;;;;5029515;28;20029;-68
2021/01/29 00:33:09;;;;;;;1.67;0.90;;;8.20;98.00;;;;;;5034030;28;20143;-68
2021/01/29 00:35:35;;;;;;;1.45;0.73;;;8.10;98.00;;;;;;5031921;28;20033;-68
2021/01/29 00:38:03;;;;;;;0.70;0.70;;;8.20;98.00;;;;;;5027465;28;20094;-66
2021/01/29 00:40:30;;;;;;;17.30;1.35;;;8.30;98.00;;;;;;5029089;28;20171;-67
2021/01/29 00:42:56;;;;;;;0.80;0.70;;;8.30;98.00;;;;;;5034141;28;21708;-69
2021/01/29 00:45:28;;;;;;;0.70;0.70;;;8.40;98.00;;;;;;5030542;28;20026;-68
2021/01/29 00:47:54;;;;;;;1.80;0.88;;;8.40;98.00;;;;;;5033148;28;20040;-68
2021/01/29 00:50:20;;;;;;;0.88;0.63;;;8.50;98.00;;;;;;5034016;28;20022;-68
2021/01/29 00:52:46;;;;;;;1.58;0.80;;;8.60;98.00;;;;;;5028116;28;20037;-68
2021/01/29 00:55:14;;;;;;;1.58;0.70;;;8.70;98.00;;;;;;5028693;28;20080;-69
2021/01/29 00:57:42;;;;;;;0.80;0.70;;;8.70;98.00;;;;;;5029952;28;20415;-68
2021/01/29 01:00:10;;;;;;;0.80;0.70;;;8.70;98.00;;;;;;5031805;28;20350;-67
2021/01/29 01:02:36;;;;;;;0.80;0.70;;;8.70;98.00;;;;;;5033240;28;20029;-69
2021/01/29 01:05:02;;;;;;;1.25;0.73;;;8.80;98.00;;;;;;5033196;28;20037;-69
2021/01/29 01:07:30;;;;;;;0.75;0.70;;;8.80;98.00;;;;;;5027666;28;20101;-69
2021/01/29 01:09:56;;;;;;;1.20;0.75;;;8.80;98.00;;;;;;5031307;28;20029;-67
2021/01/29 01:12:26;;;;;;;1.00;0.80;;;8.80;98.00;;;;;;5037947;28;20337;-67
2021/01/29 01:14:51;;;;;;;0.88;0.60;;;8.60;98.00;;;;;;5031469;28;20083;-68
2021/01/29 01:17:20;;;;;;;1.25;0.85;;;8.50;98.00;;;;;;5031537;28;20029;-69
2021/01/29 01:19:47;;;;;;;1.30;0.75;;;8.30;98.00;;;;;;5033155;28;20080;-68
2021/01/29 01:22:13;;;;;;;0.68;0.65;;;8.30;98.00;;;;;;5028247;28;20027;-68
2021/01/29 01:24:41;;;;;;;1.10;0.80;;;8.40;98.00;;;;;;5031855;28;20021;-68
2021/01/29 01:27:08;;;;;;;2.30;0.73;;;8.40;98.00;;;;;;5032813;28;20026;-70
2021/01/29 01:29:34;;;;;;;1.50;0.80;;;8.50;98.00;;;;;;5033444;28;20032;-70
2021/01/29 01:32:00;;;;;;;0.65;0.65;;;8.40;98.00;;;;;;5032618;28;20477;-69
2021/01/29 01:34:25;;;;;;;0.70;0.60;;;8.20;98.00;;;;;;5030901;28;20333;-68
2021/01/29 01:36:51;;;;;;;1.80;0.80;;;8.30;98.00;;;;;;5030989;28;20013;-70
2021/01/29 01:39:17;;;;;;;1.77;0.73;;;8.40;98.00;;;;;;5029407;28;20072;-69
2021/01/29 01:41:45;;;;;;;0.70;0.70;;;8.30;98.00;;;;;;5033686;28;20104;-68
2021/01/29 01:44:36;;;;;;;1.55;0.80;;;8.30;98.00;;;;;;5032283;28;20029;-69
2021/01/29 01:47:20;;;;;;;1.30;0.80;;;8.40;98.00;;;;;;5028099;28;20069;-69
2021/01/29 01:49:48;;;;;;;0.80;0.70;;;8.30;98.00;;;;;;5030041;28;20033;-68
2021/01/29 01:52:37;;;;;;;0.73;0.70;;;8.20;98.00;;;;;;5036794;28;20029;-67
2021/01/29 01:55:08;;;;;;;2.50;0.75;;;8.20;98.00;;;;;;5027661;28;20024;-68
2021/01/29 01:57:38;;;;;;;0.60;0.60;;;8.20;98.00;;;;;;5034204;28;20033;-69
2021/01/29 02:00:11;;;;;;;1.00;0.70;;;8.20;98.00;;;;;;5036598;28;20029;-69
2021/01/29 02:02:44;;;;;;;0.93;0.80;;;8.20;98.00;;;;;;5035433;28;20025;-68
2021/01/29 02:05:18;;;;;;;3.08;0.70;;;8.20;98.00;;;;;;5030572;28;20022;-68
2021/01/29 02:07:54;;;;;;;1.85;0.70;;;8.30;98.00;;;;;;5035543;28;20052;-67
2021/01/29 02:10:25;;;;;;;0.85;0.65;;;8.60;98.00;;;;;;5033236;28;20037;-67
2021/01/29 02:12:53;;;;;;;0.90;0.70;;;8.60;98.00;;;;;;5035892;28;20502;-68
2021/01/29 02:15:24;;;;;;;1.63;0.68;;;8.50;98.00;;;;;;5035952;28;20021;-69
2021/01/29 02:18:08;;;;;;;0.60;0.60;;;8.50;98.00;;;;;;5034398;28;20025;-69
2021/01/29 02:20:52;;;;;;;0.60;0.60;;;8.40;98.00;;;;;;5035049;28;20030;-68
2021/01/29 02:23:24;;;;;;;;;;;8.40;98.00;;;;;;5030226;28;20037;-69
2021/01/29 02:26:32;;;;;;;0.93;0.60;;;8.60;98.00;;;;;;5034912;28;20369;-68
2021/01/29 02:29:26;;;;;;;0.65;0.60;;;8.80;98.00;;;;;;5033353;28;20026;-67
2021/01/29 02:32:26;;;;;;;0.85;0.70;;;8.80;98.00;;;;;;5036184;28;20021;-68
2021/01/29 02:35:19;;;;;;;0.60;0.60;;;8.70;98.00;;;;;;5035427;28;20021;-69
2021/01/29 02:38:21;;;;;;;0.90;0.60;;;8.80;98.00;;;;;;5031819;28;20037;-67
2021/01/29 02:41:14;;;;;;;0.70;0.70;;;9.00;98.00;;;;;;5029922;28;20038;-68
2021/01/29 02:44:00;;;;;;;1.15;0.60;;;9.10;98.00;;;;;;5025046;28;20037;-68
2021/01/29 02:46:51;;;;;;;0.93;0.70;;;9.10;98.00;;;;;;5035447;28;20136;-69
2021/01/29 02:49:35;;;;;;;0.90;0.73;;;9.10;98.00;;;;;;5036231;28;20021;-68
2021/01/29 02:52:28;;;;;;;0.80;0.60;;;9.20;98.00;;;;;;5031959;28;20112;-67
2021/01/29 02:55:22;;;;;;;0.60;0.60;;;9.20;98.00;;;;;;5027405;28;20085;-69
2021/01/29 02:57:56;;;;;;;0.60;0.60;;;9.20;98.00;;;;;;5033415;28;20025;-68
2021/01/29 03:00:40;;;;;;;0.68;0.60;;;9.10;98.00;;;;;;5032072;28;20040;-68
2021/01/29 03:03:25;;;;;;;0.70;0.70;;;9.10;97.60;;;;;;5033137;28;20029;-69
2021/01/29 03:05:56;;;;;;;;;;;9.20;97.00;;;;;;5009941;28;20034;-69
2021/01/29 03:08:30;;;;;;;0.60;0.60;;;9.20;96.70;;;;;;5033167;28;19923;-68
2021/01/29 03:11:34;;;;;;;1.85;0.70;;;9.20;96.60;;;;;;5034267;28;20084;-68
2021/01/29 03:14:23;;;;;;;0.50;0.50;;;9.10;96.90;;;;;;5016843;28;20042;-68
2021/01/29 03:17:02;;;;;;;1.65;0.70;;;9.10;97.70;;;;;;5035419;28;20069;-68
2021/01/29 03:19:33;;;;;;;0.70;0.60;;;9.00;98.00;;;;;;5036303;28;20387;-69
2021/01/29 03:22:02;;;;;;;0.60;0.60;;;8.80;98.00;;;;;;5035795;28;20095;-69
2021/01/29 03:24:37;;;;;;;0.70;0.63;;;8.60;98.00;;;;;;5033915;28;20326;-70
2021/01/29 03:27:10;;;;;;;0.77;0.70;;;8.50;98.00;;;;;;5034307;28;20152;-69
2021/01/29 03:29:44;;;;;;;1.48;0.60;;;8.30;98.00;;;;;;5034632;28;20147;-70
2021/01/29 03:32:12;;;;;;;0.70;0.70;;;8.20;98.00;;;;;;5031172;28;20033;-70
2021/01/29 03:34:46;;;;;;;0.60;0.60;;;8.10;98.00;;;;;;5033433;28;20318;-69
2021/01/29 03:37:17;;;;;;;;;;;8.10;98.00;;;;;;5033994;28;20046;-68
2021/01/29 03:39:43;;;;;;;0.90;0.70;;;8.00;98.00;;;;;;5030682;28;19963;-70
2021/01/29 03:42:18;;;;;;;0.60;0.60;;;7.90;98.00;;;;;;5034225;28;20025;-70
2021/01/29 03:45:06;;;;;;;1.02;0.70;;;8.00;98.00;;;;;;5034498;28;20028;-69
2021/01/29 03:47:35;;;;;;;0.60;0.60;;;8.00;98.00;;;;;;5033927;28;20029;-70
2021/01/29 03:50:23;;;;;;;0.60;0.60;;;7.90;98.00;;;;;;5034251;28;20025;-69
2021/01/29 03:53:24;;;;;;;0.60;0.60;;;7.80;98.00;;;;;;5035274;28;20025;-70
2021/01/29 03:56:15;;;;;;;0.60;0.60;;;7.90;98.00;;;;;;5011804;28;20026;-69
2021/01/29 03:59:06;;;;;;;0.70;0.60;;;7.90;98.00;;;;;;5023702;28;20390;-70
2021/01/29 04:01:52;;;;;;;0.60;0.60;;;7.80;98.00;;;;;;5031542;28;20316;-70
2021/01/29 04:04:27;;;;;;;2.03;0.70;;;7.80;98.00;;;;;;5029915;28;20029;-71
2021/01/29 04:07:15;;;;;;;0.75;0.70;;;7.80;98.00;;;;;;5031984;28;20017;-71
2021/01/29 04:10:01;;;;;;;0.70;0.70;;;7.70;98.00;;;;;;5031983;28;20060;-71
2021/01/29 04:12:45;;;;;;;2.55;0.60;;;7.70;98.00;;;;;;5034571;28;20323;-71
2021/01/29 04:15:43;;;;;;;0.60;0.60;;;7.60;98.00;;;;;;5034463;28;20430;-71
2021/01/29 04:18:18;;;;;;;0.65;0.65;;;7.70;98.00;;;;;;5022986;28;20045;-71
2021/01/29 04:20:49;;;;;;;0.60;0.60;;;7.60;98.00;;;;;;5033506;28;20033;-72
2021/01/29 04:23:35;;;;;;;0.50;0.50;;;7.60;98.00;;;;;;5032118;28;20462;-71
2021/01/29 04:26:11;;;;;;;0.60;0.60;;;7.60;98.00;;;;;;5028250;28;20112;-71
2021/01/29 04:28:42;;;;;;;1.52;0.70;;;7.70;98.00;;;;;;5029275;28;20025;-71
2021/01/29 04:31:12;;;;;;;0.60;0.60;;;7.70;98.00;;;;;;5033906;28;20036;-71
2021/01/29 04:33:47;;;;;;;0.65;0.60;;;7.70;98.00;;;;;;5033884;28;20021;-70
2021/01/29 04:36:15;;;;;;;0.60;0.60;;;7.50;98.00;;;;;;5034844;28;20037;-69
2021/01/29 04:38:47;;;;;;;0.60;0.60;;;7.50;98.00;;;;;;5032242;28;20021;-69
2021/01/29 04:41:30;;;;;;;0.60;0.60;;;7.50;98.00;;;;;;5020770;28;20045;-70
2021/01/29 04:44:19;;;;;;;1.10;0.80;;;7.70;98.00;;;;;;5023430;28;20029;-71
2021/01/29 04:47:02;;;;;;;0.75;0.68;;;7.70;98.00;;;;;;5032986;28;20056;-70
2021/01/29 04:50:02;;;;;;;0.60;0.60;;;7.50;98.00;;;;;;5019028;28;20022;-70
2021/01/29 04:53:12;;;;;;;1.10;0.80;;;7.60;98.00;;;;;;5026796;28;20484;-70
2021/01/29 04:56:03;;;;;;;4.75;0.80;;;7.50;98.00;;;;;;5012371;28;20053;-70
2021/01/29 04:58:28;;;;;;;0.60;0.60;;;7.30;98.00;;;;;;5004952;28;20121;-69
2021/01/29 05:01:35;;;;;;;3.08;2.03;;;7.40;98.00;;;;;;5007202;28;20120;-69
2021/01/29 05:04:42;;;;;;;2.85;1.00;;;7.30;98.00;;;;;;5030102;28;20033;-68
2021/01/29 05:07:31;;;;;;;0.70;0.70;;;7.10;98.00;;;;;;5021988;28;20057;-69
2021/01/29 05:10:29;;;;;;;2.55;1.50;;;7.00;98.00;;;;;;5030501;28;20547;-70
2021/01/29 05:13:09;;;;;;;3.13;1.70;;;7.10;98.00;;;;;;5004253;28;20108;-70
2021/01/29 05:16:02;;;;;;;1.92;0.88;;;7.20;98.00;;;;;;5032044;28;20202;-70
2021/01/29 05:18:55;;;;;;;0.73;0.70;;;7.10;98.00;;;;;;5033912;28;20037;-70
2021/01/29 05:22:01;;;;;;;0.60;0.60;;;7.20;98.00;;;;;;5026079;28;20097;-70
2021/01/29 05:24:59;;;;;;;0.80;0.70;;;7.40;98.00;;;;;;5016166;28;20025;-69
2021/01/29 05:27:28;;;;;;;0.60;0.60;;;7.40;98.00;;;;;;5033077;28;20048;-70
2021/01/29 05:30:09;;;;;;;0.80;0.60;;;7.80;98.00;;;;;;5033438;28;20025;-70
2021/01/29 05:32:44;;;;;;;0.60;0.60;;;7.90;98.00;;;;;;5027551;28;20049;-69
2021/01/29 05:35:23;;;;;;;0.60;0.60;;;8.20;98.00;;;;;;5036510;28;20025;-70
2021/01/29 05:38:14;;;;;;;0.52;0.52;;;8.40;98.00;;;;;;5035445;28;20045;-71
2021/01/29 05:40:59;;;;;;;0.80;0.60;;;8.40;98.00;;;;;;5029674;28;20038;-70
2021/01/29 05:44:05;;;;;;;0.50;0.50;;;8.50;98.00;;;;;;5034906;28;20080;-70
2021/01/29 05:47:08;;;;;;;0.50;0.50;;;8.60;98.00;;;;;;5031372;28;20304;-69
2021/01/29 05:50:19;;;;;;;0.52;0.52;;;8.80;98.00;;;;;;5031893;28;20716;-69
2021/01/29 05:53:15;;;;;;;0.60;0.60;;;8.80;98.00;;;;;;5019717;28;20037;-69
2021/01/29 05:56:03;;;;;;;0.60;0.60;;;8.80;98.00;;;;;;5032177;28;20026;-70
2021/01/29 05:58:40;;;;;;;0.55;0.55;;;8.90;98.00;;;;;;5034149;28;20030;-69
2021/01/29 06:01:44;;;;;;;0.95;0.70;;;8.80;98.00;;;;;;5030168;28;20034;-69
2021/01/29 06:04:39;;;;;;;0.63;0.60;;;8.70;98.00;;;;;;5033631;28;20053;-70
2021/01/29 06:07:27;;;;;;;0.60;0.60;;;8.60;98.00;;;;;;5042789;28;20033;-69
2021/01/29 06:10:05;;;;;;;0.98;0.60;;;8.60;98.00;;;;;;5034781;28;20026;-69
2021/01/29 06:13:11;;;;;;;2.78;1.10;;;8.70;98.00;;;;;;5036593;28;20044;-69
2021/01/29 06:16:01;;;;;;;3.50;0.90;;;8.70;98.00;;;;;;5027758;28;20037;-68
2021/01/29 06:19:03;;;;;;;1.25;0.70;;;8.70;98.00;;;;;;5036618;28;20044;-69
2021/01/29 06:21:50;;;;;;;1.40;0.90;;;8.70;98.00;;;;;;5035077;28;20124;-68
2021/01/29 06:24:54;;;;;;;2.85;1.13;;;8.80;98.00;;;;;;5034655;28;20934;-69
2021/01/29 06:27:44;;;;;;;2.22;1.42;;;8.80;98.00;;;;;;5032344;28;20037;-69
2021/01/29 06:30:25;;;;;;;1.73;1.00;;;8.50;98.00;;;;;;5031420;28;20112;-70
2021/01/29 06:33:31;;;;;;;1.65;0.80;;;8.20;98.00;;;;;;5035342;28;20072;-70
2021/01/29 06:36:10;;;;;;;3.83;1.80;;;7.90;98.00;;;;;;5028676;28;20338;-70
2021/01/29 06:39:05;;;;;;;2.05;0.88;;;7.60;98.00;;;;;;5034144;28;20048;-70
2021/01/29 06:41:49;;;;;;;3.80;0.90;;;7.30;98.00;;;;;;5035312;28;20438;-70
2021/01/29 06:44:47;;;;;;;3.20;1.90;;;7.20;98.00;;;;;;5028401;28;20033;-70
2021/01/29 06:47:22;;;;;;;1.63;0.90;;;7.00;98.00;;;;;;5048204;28;20393;-69
2021/01/29 06:50:29;;;;;;;1.30;0.88;;;6.90;98.00;;;;;;5041873;28;20100;-70
2021/01/29 06:53:03;;;;;;;1.63;1.10;;;6.80;98.00;;;;;;4981917;28;20022;-70
2021/01/29 06:56:06;;;;;;;0.88;0.80;;;6.80;98.00;;;;;;4979852;28;20118;-69
2021/01/29 06:58:59;;;;;;;1.27;0.90;;;6.80;98.00;;;;;;5024772;28;20426;-69
2021/01/29 07:01:43;;;;;;;1.65;0.70;;;6.90;98.00;;;;;;5028957;28;20292;-69
2021/01/29 07:04:42;;;;;;;2.63;0.85;;;7.00;98.00;;;;;;5028795;28;20029;-68
2021/01/29 07:07:19;;;;;;;2.47;1.00;;;7.00;98.00;;;;;;5035279;28;20037;-67
2021/01/29 07:10:20;;;;;;;1.25;0.75;;;7.10;98.00;;;;;;5035006;28;20497;-69
2021/01/29 07:12:56;;;;;;;2.28;1.17;;;7.10;98.00;;;;;;5027140;28;20038;-67
2021/01/29 07:15:46;;;;;;;1.30;0.90;;;7.00;98.00;;;;;;5030737;28;20021;-67
2021/01/29 07:18:28;;;;;;;1.02;0.80;;;7.00;98.00;;;;;;5034118;28;20061;-69
2021/01/29 07:21:00;;;;;;;3.95;1.70;;;7.00;98.00;;;;;;5036447;28;20318;-69
2021/01/29 07:23:55;;;;;;;2.30;1.27;;;7.00;98.00;;;;;;5029516;28;20033;-69
2021/01/29 07:27:09;;;;;;;2.00;1.05;;;6.90;98.00;;;;;;5036584;28;20036;-69
2021/01/29 07:30:15;;;;;;;1.33;1.05;;;6.90;98.00;;;;;;5014669;28;20038;-68
2021/01/29 07:32:48;;;;;;;1.77;1.00;;;7.00;98.00;;;;;;5045208;28;20029;-69
2021/01/29 07:35:38;;;;;;;3.03;1.38;;;7.00;98.00;;;;;;5036227;28;20032;-69
2021/01/29 07:38:22;;;;;;;1.40;0.93;;;6.90;98.00;;;;;;5036225;28;20036;-68
2021/01/29 07:41:14;;;;;;;2.47;1.00;;;6.90;98.00;;;;;;5034695;28;20393;-69
2021/01/29 07:43:46;;;;;;;1.80;0.95;;;7.00;98.00;;;;;;5034366;28;20450;-69
2021/01/29 07:46:32;;;;;;;1.95;1.00;;;7.10;98.00;;;;;;5035531;28;20038;-68
2021/01/29 07:49:14;;;;;;;2.75;1.40;;;7.10;98.00;;;;;;5036063;28;20108;-69
2021/01/29 07:51:57;;;;;;;2.35;1.40;;;7.10;98.00;;;;;;5035434;28;20018;-69
2021/01/29 07:54:30;;;;;;;4.18;1.73;;;7.10;98.00;;;;;;5034656;28;20021;-68
2021/01/29 07:57:24;;;;;;;1.90;1.20;;;7.20;98.00;;;;;;5035715;28;20100;-68
2021/01/29 08:00:20;;;;;;;4.43;1.40;;;7.20;98.00;;;;;;5036041;28;20032;-67
2021/01/29 08:03:25;;;;;;;3.03;1.30;;;7.20;98.00;;;;;;5035341;28;20033;-67
2021/01/29 08:06:02;;;;;;;1.85;1.00;;;7.30;98.00;;;;;;5035439;28;20064;-68
2021/01/29 08:08:33;;;;;;;2.65;1.60;;;7.30;98.00;;;;;;5035404;28;20033;-67
2021/01/29 08:11:01;;;;;;;2.25;1.15;;;7.40;98.00;;;;;;5033471;28;20029;-68
2021/01/29 08:13:40;;;;;;;3.22;1.52;;;7.50;98.00;;;;;;5035766;28;20028;-68
2021/01/29 08:16:34;;;;;;;2.70;1.38;;;7.50;98.00;;;;;;5034668;28;20330;-69
2021/01/29 08:19:12;;;;;;;4.10;1.70;;;7.60;98.00;;;;;;5020078;28;20326;-69
2021/01/29 08:21:49;;;;;;;3.33;1.63;;;7.60;98.00;;;;;;5038603;28;20039;-68
2021/01/29 08:24:45;;;;;;;2.42;1.33;;;7.70;98.00;;;;;;5038309;28;20029;-68
2021/01/29 08:27:56;;;;;;;4.20;1.92;;;7.70;98.00;;;;;;5016400;28;20418;-68
2021/01/29 08:30:41;;;;;;;11.77;6.75;;;7.70;98.00;;;;;;5034881;28;20029;-67
2021/01/29 08:33:38;;;;;;;3.28;1.73;;;7.70;98.00;;;;;;5034491;28;20038;-68
2021/01/29 08:36:18;;;;;;;7.15;4.32;;;7.80;98.00;;;;;;5029411;28;20033;-69
2021/01/29 08:39:17;;;;;;;5.50;3.58;;;7.90;98.00;;;;;;5033105;28;20034;-68
2021/01/29 08:42:07;;;;;;;4.53;2.22;;;8.00;98.00;;;;;;5028104;28;20101;-68
2021/01/29 08:44:47;;;;;;;4.75;2.70;;;8.10;98.00;;;;;;5031605;28;20381;-67
2021/01/29 08:47:16;;;;;;;11.52;2.13;;;8.10;98.00;;;;;;5043999;28;20456;-68
2021/01/29 08:49:55;;;;;;;3.95;1.38;;;8.20;98.00;;;;;;5033440;28;20033;-68
2021/01/29 08:52:36;;;;;;;4.47;1.63;;;8.20;98.00;;;;;;5033765;28;20109;-69
2021/01/29 08:55:09;;;;;;;4.13;2.28;;;8.10;98.00;;;;;;5028158;28;20029;-66
2021/01/29 08:57:41;;;;;;;5.10;2.63;;;8.10;98.00;;;;;;5044091;28;20151;-69
2021/01/29 09:00:23;;;;;;;4.72;2.30;;;8.10;98.00;;;;;;5046096;28;20030;-69
2021/01/29 09:02:55;;;;;;;4.38;1.85;;;8.10;98.00;;;;;;5042985;28;20021;-68
2021/01/29 09:05:24;;;;;;;2.85;1.38;;;8.10;98.00;;;;;;5036140;28;20129;-67
2021/01/29 09:08:02;;;;;;;1.90;1.17;;;8.10;98.00;;;;;;5036885;28;20060;-68
2021/01/29 09:10:59;;;;;;;4.57;1.83;;;8.10;98.00;;;;;;5029790;28;20025;-68
2021/01/29 09:13:25;;;;;;;4.97;2.00;;;8.10;98.00;;;;;;5036035;28;20021;-69
2021/01/29 09:16:03;;;;;;;4.60;1.08;;;8.00;98.00;;;;;;5037447;28;20030;-68
2021/01/29 09:18:31;;;;;;;2.67;1.10;;;7.90;98.00;;;;;;5038141;28;20052;-69
2021/01/29 09:21:34;;;;;;;3.40;1.50;;;7.80;98.00;;;;;;5038460;28;20044;-68
2021/01/29 09:24:33;;;;;;;4.90;2.05;;;7.70;98.00;;;;;;5035128;28;20037;-70
2021/01/29 09:27:04;;;;;;;5.15;3.10;;;7.60;98.00;;;;;;5038357;28;20112;-69
2021/01/29 09:29:39;;;;;;;7.88;2.35;;;7.40;98.00;;;;;;5038002;28;20024;-68
2021/01/29 09:32:17;;;;;;;5.57;3.55;;;7.30;98.00;;;;;;5037337;28;20037;-68
2021/01/29 09:34:47;;;;;;;4.53;2.33;;;7.30;98.00;;;;;;5032659;28;20187;-68
2021/01/29 09:37:25;;;;;;;4.07;2.08;;;7.20;98.00;;;;;;5037269;28;20035;-68
2021/01/29 09:39:54;;;;;;;4.35;2.45;;;7.10;98.00;;;;;;5030477;28;20119;-68
2021/01/29 09:42:50;;;;;;;6.00;2.20;;;7.10;98.00;;;;;;5037159;28;20018;-70
2021/01/29 09:45:28;;;;;;;4.00;2.10;;;7.20;98.00;;;;;;5036610;28;20032;-69
2021/01/29 09:48:02;;;;;;;3.05;1.40;;;7.50;98.00;;;;;;5039450;28;20021;-68
2021/01/29 09:50:30;;;;;;;4.68;1.90;;;7.70;98.00;;;;;;5037520;28;20109;-68
2021/01/29 09:53:13;;;;;;;3.38;1.55;;;8.00;98.00;;;;;;5038079;28;20030;-67
2021/01/29 09:55:56;;;;;;;3.08;1.52;;;8.50;98.00;;;;;;5034316;28;20736;-68
2021/01/29 09:58:34;;;;;;;3.80;1.40;;;8.20;98.00;;;;;;5041055;28;20025;-68
2021/01/29 10:01:08;;;;;;;4.03;1.52;;;7.80;98.00;;;;;;5037628;28;20109;-69
2021/01/29 10:04:18;;;;;;;5.75;2.42;;;7.60;98.00;;;;;;5037227;28;20037;-68
2021/01/29 10:06:59;;;;;;;3.97;2.13;;;7.50;98.00;;;;;;5021630;28;20442;-68
2021/01/29 10:09:33;;;;;;;6.18;3.47;;;7.50;98.00;;;;;;5039329;28;20413;-68
2021/01/29 10:12:10;;;;;;;3.88;1.52;;;7.60;98.00;;;;;;5036320;28;20025;-69
2021/01/29 10:15:01;;;;;;;8.40;2.08;;;7.50;98.00;;;;;;5037008;28;20032;-67
2021/01/29 10:17:43;;;;;;;4.68;1.98;;;7.50;98.00;;;;;;5033791;28;20419;-68
2021/01/29 10:20:12;;;;;;;8.23;3.65;;;7.50;98.00;;;;;;5036736;28;20033;-67
2021/01/29 10:23:15;;;;;;;22.73;9.55;;;7.60;98.00;;;;;;5037326;28;20049;-67
2021/01/29 10:26:08;;;;;;;5.68;2.30;;;7.80;98.00;;;;;;5035754;28;20036;-68
2021/01/29 10:29:01;;;;;;;5.13;2.27;;;8.00;98.00;;;;;;5036788;28;20025;-66
2021/01/29 10:31:37;;;;;;;3.42;1.45;;;7.90;98.00;;;;;;5035994;28;20029;-67
2021/01/29 10:34:21;;;;;;;3.05;1.30;;;8.00;98.00;;;;;;5041027;28;20087;-67
2021/01/29 10:36:49;;;;;;;3.38;1.45;;;8.50;97.20;;;;;;5036903;28;20388;-67
2021/01/29 10:39:19;;;;;;;3.88;1.55;;;9.20;95.10;;;;;;5035061;28;20025;-67
2021/01/29 10:41:59;;;;;;;3.03;1.10;;;10.00;93.90;;;;;;5036394;28;20446;-67
2021/01/29 10:44:28;;;;;;;3.10;1.70;;;10.00;92.20;;;;;;5035146;28;20049;-66
2021/01/29 10:47:18;;;;;;;5.65;2.30;;;9.40;93.90;;;;;;5034415;28;20026;-67
2021/01/29 10:50:05;;;;;;;5.28;2.38;;;8.90;95.10;;;;;;5029443;28;20533;-67
2021/01/29 10:52:47;;;;;;;6.40;2.65;;;8.50;95.80;;;;;;5036346;28;20021;-67
2021/01/29 10:55:33;;;;;;;5.68;2.20;;;8.30;96.20;;;;;;5041964;28;20029;-67
2021/01/29 10:58:36;;;;;;;6.80;3.00;;;8.10;96.90;;;;;;5037254;28;20037;-66
2021/01/29 11:01:09;;;;;;;4.47;1.63;;;7.90;97.70;;;;;;5035602;28;20430;-66
2021/01/29 11:03:56;;;;;;;2.38;1.15;;;7.80;96.70;;;;;;5030394;28;20069;-68
2021/01/29 11:06:29;;;;;;;4.88;1.17;;;7.70;97.80;;;;;;5036878;28;20034;-68
2021/01/29 11:09:00;;;;;;;5.55;2.50;;;7.60;97.60;;;;;;5033351;28;20029;-67
2021/01/29 11:12:06;;;;;;;6.30;2.63;;;7.50;98.00;;;;;;5029958;28;20439;-66
2021/01/29 11:14:40;;;;;;;3.30;1.00;;;7.50;98.00;;;;;;5036151;28;20437;-67
2021/01/29 11:17:24;;;;;;;5.60;2.10;;;7.30;98.00;;;;;;5033741;28;20160;-68
2021/01/29 11:19:53;;;;;;;2.13;1.02;;;7.10;98.00;;;;;;5034679;28;20040;-68
2021/01/29 11:23:00;;;;;;;3.13;1.25;;;7.00;98.00;;;;;;5027302;28;20021;-69
2021/01/29 11:25:49;;;;;;;3.20;1.13;;;6.80;98.00;;;;;;5033770;28;20093;-68
2021/01/29 11:28:51;;;;;;;5.35;1.42;;;6.60;98.00;;;;;;5030885;28;20128;-68
2021/01/29 11:31:40;;;;;;;2.28;0.90;;;6.40;98.00;;;;;;5034180;28;20101;-68
2021/01/29 11:34:23;;;;;;;1.00;0.88;;;6.40;98.00;;;;;;5038661;28;20116;-66
2021/01/29 11:36:57;;;;;;;2.72;1.10;;;6.30;98.00;;;;;;5020596;28;20080;-68
2021/01/29 11:39:48;;;;;;;3.07;1.53;;;6.20;98.00;;;;;;5024840;28;20025;-68
2021/01/29 11:42:29;;;;;;;3.92;1.60;;;6.20;98.00;;;;;;5027544;28;20172;-69
2021/01/29 11:45:18;;;;;;;5.45;1.85;;;6.20;98.00;;;;;;5024087;28;20466;-68
2021/01/29 11:48:07;;;;;;;3.58;1.65;;;6.30;98.00;;;;;;5027887;28;20037;-69
2021/01/29 11:50:55;;;;;;;3.92;1.90;;;6.30;98.00;;;;;;5026190;28;20017;-69
2021/01/29 11:53:50;;;;;;;5.88;2.88;;;6.40;98.00;;;;;;5032440;28;20053;-69
2021/01/29 11:56:32;;;;;;;6.97;3.15;;;6.60;98.00;;;;;;5029546;28;20323;-67
2021/01/29 11:59:11;;;;;;;4.97;2.67;;;6.80;98.00;;;;;;5032457;28;20323;-68
2021/01/29 12:01:46;;;;;;;3.97;1.90;;;6.90;98.00;;;;;;5032589;28;20060;-68
2021/01/29 12:04:32;;;;;;;9.77;3.13;;;6.90;98.00;;;;;;5029058;28;20096;-69
2021/01/29 12:07:08;;;;;;;7.28;3.33;;;6.90;98.00;;;;;;5027269;28;20041;-69
2021/01/29 12:09:58;;;;;;;6.53;2.95;;;7.00;98.00;;;;;;5029693;28;20025;-69
2021/01/29 12:12:29;;;;;;;4.82;2.25;;;6.90;98.00;;;;;;5025223;28;20033;-69
2021/01/29 12:15:14;;;;;;;2.95;1.38;;;6.90;98.00;;;;;;5032092;28;20053;-69
2021/01/29 12:17:52;;;;;;;3.05;1.42;;;6.90;98.00;;;;;;5030808;28;20026;-68
2021/01/29 12:20:26;;;;;;;4.40;1.73;;;6.90;98.00;;;;;;5026102;28;20108;-68
2021/01/29 12:23:10;;;;;;;5.40;1.80;;;7.10;98.00;;;;;;5035083;28;20026;-69
2021/01/29 12:26:00;;;;;;;3.58;1.38;;;7.90;98.00;;;;;;5030668;28;20056;-67
2021/01/29 12:28:32;;;;;;;1.70;0.98;;;9.00;98.00;;;;;;5031720;28;20025;-67
2021/01/29 12:31:15;;;;;;;2.58;1.27;;;10.10;94.60;;;;;;5029963;28;20047;-68
2021/01/29 12:33:47;;;;;;;2.65;1.00;;;11.20;92.60;;;;;;5031242;28;20108;-67
2021/01/29 12:36:17;;;;;;;2.75;1.25;;;12.30;88.40;;;;;;5029405;28;20485;-67
2021/01/29 12:39:08;;;;;;;3.20;1.00;;;12.50;86.50;;;;;;5031282;28;20044;-68
2021/01/29 12:41:47;;;;;;;3.83;1.10;;;11.80;87.00;;;;;;5031345;28;20061;-69
2021/01/29 12:44:40;;;;;;;3.00;1.42;;;11.30;89.40;;;;;;5031992;28;20079;-69
2021/01/29 12:47:25;;;;;;;2.58;1.00;;;11.00;89.40;;;;;;5028631;28;20037;-69
2021/01/29 12:49:56;;;;;;;2.72;1.17;;;10.30;90.20;;;;;;5031448;28;20025;-69
2021/01/29 12:52:35;;;;;;;2.42;1.15;;;9.80;92.70;;;;;;5029052;28;20434;-69
2021/01/29 12:55:15;;;;;;;3.15;1.30;;;9.60;94.10;;;;;;5029706;28;20056;-68
2021/01/29 12:57:40;;;;;;;5.07;1.20;;;9.30;93.80;;;;;;5030682;28;20017;-69
2021/01/29 13:00:27;;;;;;;5.07;2.40;;;8.80;94.90;;;;;;5029890;28;20069;-69
2021/01/29 13:03:18;;;;;;;6.00;2.38;;;8.60;96.20;;;;;;5028765;28;20026;-68
2021/01/29 13:06:11;;;;;;;5.03;2.40;;;8.30;97.20;;;;;;5024380;28;20392;-69
2021/01/29 13:08:56;;;;;;;5.88;2.15;;;8.00;98.00;;;;;;5022880;28;20030;-69
2021/01/29 13:11:50;;;;;;;5.85;2.63;;;7.70;98.00;;;;;;5031133;28;20033;-70
2021/01/29 13:14:28;;;;;;;4.43;2.03;;;7.40;98.00;;;;;;5028775;28;20033;-71
2021/01/29 13:17:32;;;;;;;4.63;1.80;;;7.10;98.00;;;;;;5030573;28;20377;-69
2021/01/29 13:20:18;;;;;;;5.38;1.90;;;7.00;98.00;;;;;;5010686;28;20439;-71
2021/01/29 13:22:47;;;;;;;5.85;2.30;;;6.70;98.00;;;;;;5020129;28;20619;-72
2021/01/29 13:25:21;;;;;;;7.00;1.98;;;6.50;98.00;;;;;;5027931;28;20029;-71
2021/01/29 13:28:01;;;;;;;6.80;3.63;;;6.30;98.00;;;;;;5025812;28;20037;-70
2021/01/29 13:30:38;;;;;;;8.63;2.55;;;6.20;98.00;;;;;;5030255;28;20033;-68
2021/01/29 13:33:21;;;;;;;5.05;2.00;;;6.10;98.00;;;;;;5025154;28;20025;-70
2021/01/29 13:35:51;;;;;;;4.20;2.00;;;6.00;98.00;;;;;;5028988;28;20049;-70
2021/01/29 13:38:46;;;;;;;2.30;1.00;;;5.90;98.00;;;;;;5026741;28;20025;-71
2021/01/29 13:41:22;;;;;;;3.15;1.30;;;5.80;98.00;;;;;;5020272;28;20099;-69
2021/01/29 13:43:49;;;;;;;5.97;2.38;;;5.70;98.00;;;;;;5028251;28;20434;-71
2021/01/29 13:46:29;;;;;;;3.65;1.65;;;5.60;98.00;;;;;;5028756;28;20041;-70
2021/01/29 13:49:25;;;;;;;2.67;1.27;;;5.60;98.00;;;;;;5032946;28;20369;-70
2021/01/29 13:51:52;;;;;;;4.95;2.30;;;5.60;98.00;;;;;;5029517;28;20028;-68
2021/01/29 13:54:29;;;;;;;10.38;2.90;;;5.60;98.00;;;;;;5033378;28;20074;-69
2021/01/29 13:56:56;;;;;;;5.35;3.20;;;5.60;98.00;;;;;;5030821;28;20037;-70
2021/01/29 13:59:32;;;;;;;11.63;5.78;;;5.60;98.00;;;;;;5033123;28;20330;-71
2021/01/29 14:02:10;;;;;;;8.52;4.43;;;5.50;98.00;;;;;;5032349;28;20037;-71
2021/01/29 14:04:51;;;;;;;16.42;7.90;;;5.50;98.00;;;;;;5033757;28;20112;-70
2021/01/29 14:07:20;;;;;;;6.75;2.90;;;5.60;98.00;;;;;;5031490;28;20099;-72
2021/01/29 14:09:48;;;;;;;3.95;1.50;;;5.60;98.00;;;;;;5032314;28;20032;-71
2021/01/29 14:12:20;;;;;;;4.40;1.70;;;5.60;98.00;;;;;;5033302;28;20331;-71